Time;durP1;ratioP1;P1;durP2;ratioP2;P2;SDS_P1;SDS_P2;PMS_P1;PMS_P2;Temp;Humidity;BMP_temperature;BMP_pressure;BME280_temperature;BME280_humidity;BME280_pressure;Samples;Min_cycle;Max_cycle;Signal;HPM_P1;HPM_P2
2024/01/06 00:01:19;;;;;;;1.50;1.40;;;;;;;-19.82;71.17;98789.59;4956049;28;20051;-86
2024/01/06 00:03:46;;;;;;;1.60;1.50;;;;;;;-19.80;71.31;98782.69;4955960;28;20047;-86
2024/01/06 00:06:16;;;;;;;1.73;1.63;;;;;;;-19.88;71.30;98772.69;4956031;28;20133;-87
2024/01/06 00:08:43;;;;;;;1.60;1.50;;;;;;;-19.91;71.28;98786.50;4921853;29;20151;-85
2024/01/06 00:11:11;;;;;;;1.60;1.50;;;;;;;-20.05;71.51;98787.94;4954358;28;20047;-84
2024/01/06 00:13:38;;;;;;;1.70;1.60;;;;;;;-20.05;71.89;98780.22;4960010;28;20044;-86
2024/01/06 00:16:05;;;;;;;1.50;1.40;;;;;;;-20.06;72.04;98779.41;4952644;29;20051;-86
2024/01/06 00:18:33;;;;;;;1.70;1.60;;;;;;;-20.02;72.18;98792.94;4955938;28;20051;-86
2024/01/06 00:21:01;;;;;;;1.63;1.52;;;;;;;-19.99;72.32;98785.97;4955029;28;20074;-86
2024/01/06 00:23:29;;;;;;;1.63;1.52;;;;;;;-20.03;72.23;98783.56;4953536;29;20062;-86
2024/01/06 00:25:56;;;;;;;1.52;1.42;;;;;;;-20.03;72.15;98781.84;4954029;28;20531;-85
2024/01/06 00:28:24;;;;;;;1.60;1.50;;;;;;;-20.05;72.45;98773.34;4969566;28;20054;-85
2024/01/06 00:30:52;;;;;;;1.52;1.42;;;;;;;-20.01;72.44;98776.66;4954373;28;20047;-85
2024/01/06 00:33:20;;;;;;;1.70;1.60;;;;;;;-19.98;72.47;98764.50;4954292;28;20502;-85
2024/01/06 00:35:49;;;;;;;1.95;1.85;;;;;;;-19.95;72.70;98766.13;4958388;28;20070;-86
2024/01/06 00:38:17;;;;;;;1.73;1.63;;;;;;;-19.83;72.72;98762.25;4955651;28;20051;-87
2024/01/06 00:40:44;;;;;;;1.40;1.30;;;;;;;-19.74;72.88;98772.16;4953781;29;20051;-85
2024/01/06 00:43:11;;;;;;;1.60;1.50;;;;;;;-19.81;72.48;98781.00;4955496;28;20043;-85
2024/01/06 00:45:38;;;;;;;1.50;1.40;;;;;;;-19.84;72.31;98787.09;4954979;29;20118;-85
2024/01/06 00:48:06;;;;;;;1.70;1.60;;;;;;;-19.88;72.36;98779.56;4954001;29;20559;-85
2024/01/06 00:50:34;;;;;;;1.70;1.60;;;;;;;-19.88;72.47;98779.56;4955773;28;20157;-86
2024/01/06 00:53:01;;;;;;;1.60;1.50;;;;;;;-19.82;72.29;98781.88;4955175;29;20078;-85
2024/01/06 00:55:28;;;;;;;1.67;1.58;;;;;;;-19.82;72.17;98789.59;4953708;29;20134;-86
2024/01/06 00:57:56;;;;;;;1.60;1.50;;;;;;;-19.77;72.31;98796.25;4954154;28;20050;-85
2024/01/06 01:00:27;;;;;;;1.75;1.65;;;;;;;-19.90;72.26;98798.47;4954265;28;20387;-86
2024/01/06 01:02:54;;;;;;;1.65;1.55;;;;;;;-19.84;72.32;98807.66;4953914;28;20082;-86
2024/01/06 01:05:21;;;;;;;1.75;1.65;;;;;;;-19.81;72.30;98812.69;4949920;29;20051;-85
2024/01/06 01:07:49;;;;;;;1.50;1.40;;;;;;;-19.93;72.37;98806.28;4954898;28;20051;-86
2024/01/06 01:10:16;;;;;;;1.50;1.40;;;;;;;-20.01;72.23;98813.44;4954008;28;20160;-86
2024/01/06 01:12:43;;;;;;;1.50;1.40;;;;;;;-20.01;72.28;98816.00;4954036;28;20043;-86
2024/01/06 01:15:11;;;;;;;1.50;1.40;;;;;;;-20.01;72.38;98810.88;4953740;28;20499;-86
2024/01/06 01:17:38;;;;;;;1.77;1.67;;;;;;;-20.01;72.49;98812.63;4969888;28;20051;-85
2024/01/06 01:20:06;;;;;;;1.80;1.70;;;;;;;-20.04;72.53;98798.16;4954238;28;20054;-86
2024/01/06 01:22:33;;;;;;;1.60;1.50;;;;;;;-19.99;72.63;98803.94;4984581;28;20100;-86
2024/01/06 01:25:05;;;;;;;1.58;1.48;;;;;;;-19.98;72.41;98809.91;4954353;28;20055;-86
2024/01/06 01:27:33;;;;;;;1.80;1.70;;;;;;;-20.13;72.38;98804.47;4955771;28;20099;-86
2024/01/06 01:30:00;;;;;;;1.60;1.50;;;;;;;-20.16;72.35;98812.28;4955621;29;20051;-86
2024/01/06 01:32:30;;;;;;;1.88;1.77;;;;;;;-20.20;72.22;98809.88;4958659;28;20054;-86
2024/01/06 01:34:57;;;;;;;1.52;1.42;;;;;;;-20.26;72.34;98810.97;4970414;28;20071;-87
2024/01/06 01:37:25;;;;;;;1.70;1.60;;;;;;;-20.30;72.44;98803.44;4972568;28;20055;-85
2024/01/06 01:39:52;;;;;;;1.70;1.60;;;;;;;-20.35;72.32;98791.63;4970150;28;20061;-85
2024/01/06 01:42:20;;;;;;;1.70;1.60;;;;;;;-20.37;72.50;98788.25;4962709;28;20425;-86
2024/01/06 01:44:47;;;;;;;1.70;1.60;;;;;;;-20.38;72.52;98785.75;4955201;28;20134;-86
2024/01/06 01:47:18;;;;;;;1.85;1.75;;;;;;;-20.33;72.63;98783.84;4961382;28;20059;-87
2024/01/06 01:49:46;;;;;;;1.70;1.60;;;;;;;-20.37;72.69;98767.72;4958688;28;20052;-85
2024/01/06 01:52:15;;;;;;;1.50;1.40;;;;;;;-20.19;72.96;98776.47;4955043;28;20146;-87
2024/01/06 01:54:43;;;;;;;1.50;1.40;;;;;;;-20.17;73.04;98778.97;4957643;29;20434;-87
2024/01/06 01:57:12;;;;;;;1.70;1.60;;;;;;;-20.14;73.07;98777.13;4955389;29;20146;-86
2024/01/06 01:59:40;;;;;;;1.50;1.40;;;;;;;-20.16;73.44;98771.19;4955618;28;20057;-86
2024/01/06 02:02:08;;;;;;;1.60;1.50;;;;;;;-20.15;73.50;98780.59;4955208;28;20106;-86
2024/01/06 02:04:35;;;;;;;1.50;1.40;;;;;;;-20.09;73.55;98786.41;4953817;29;20082;-86
2024/01/06 02:07:03;;;;;;;1.60;1.50;;;;;;;-20.12;73.53;98777.91;4954433;28;20062;-86
2024/01/06 02:09:30;;;;;;;1.80;1.70;;;;;;;-20.13;73.65;98768.50;4953231;29;20053;-85
2024/01/06 02:11:58;;;;;;;1.90;1.80;;;;;;;-20.17;73.65;98779.81;4952974;29;20134;-87
2024/01/06 02:14:25;;;;;;;1.75;1.65;;;;;;;-20.17;73.91;98779.81;4936915;28;20056;-86
2024/01/06 02:16:53;;;;;;;1.80;1.70;;;;;;;-20.20;73.94;98789.34;4934399;29;20506;-86
2024/01/06 02:19:20;;;;;;;1.77;1.67;;;;;;;-20.16;74.11;98796.06;4936227;29;20449;-85
2024/01/06 02:21:54;;;;;;;1.63;1.52;;;;;;;-20.05;74.30;98803.34;4953115;28;20457;-86
2024/01/06 02:24:22;;;;;;;1.83;1.73;;;;;;;-20.00;74.41;98806.56;4967982;28;20043;-84
2024/01/06 02:26:50;;;;;;;1.50;1.40;;;;;;;-19.98;74.52;98805.63;4952092;29;20051;-85
2024/01/06 02:29:17;;;;;;;1.67;1.58;;;;;;;-19.93;74.53;98808.00;4953217;28;20055;-85
2024/01/06 02:31:45;;;;;;;1.70;1.60;;;;;;;-19.93;74.76;98813.16;4953999;28;20115;-85
2024/01/06 02:34:12;;;;;;;1.60;1.50;;;;;;;-19.98;74.60;98809.91;4952382;28;20470;-85
2024/01/06 02:36:40;;;;;;;1.70;1.60;;;;;;;-19.99;75.01;98805.69;4953340;28;20055;-85
2024/01/06 02:39:07;;;;;;;1.75;1.65;;;;;;;-19.93;74.98;98803.69;4940156;29;20047;-85
2024/01/06 02:41:34;;;;;;;1.63;1.52;;;;;;;-19.88;74.95;98806.09;4943720;29;20058;-87
2024/01/06 02:44:03;;;;;;;1.60;1.50;;;;;;;-19.86;75.14;98794.03;4959395;28;20134;-86
2024/01/06 02:46:30;;;;;;;1.60;1.50;;;;;;;-19.89;75.18;98796.72;4959930;28;20557;-85
2024/01/06 02:48:58;;;;;;;1.63;1.52;;;;;;;-19.85;75.23;98800.84;4959716;28;20106;-86
2024/01/06 02:51:25;;;;;;;1.60;1.50;;;;;;;-19.88;75.17;98789.84;4940305;29;20387;-86
2024/01/06 02:53:52;;;;;;;1.77;1.67;;;;;;;-19.94;75.19;98788.38;4938539;29;20430;-86
2024/01/06 02:56:20;;;;;;;1.70;1.60;;;;;;;-19.97;75.13;98798.78;4936638;29;20058;-87
2024/01/06 02:58:53;;;;;;;1.60;1.50;;;;;;;-20.04;75.01;98784.47;4939604;29;20391;-86
2024/01/06 03:01:23;;;;;;;1.50;1.40;;;;;;;-20.09;74.92;98782.09;4939003;29;20051;-87
2024/01/06 03:03:51;;;;;;;1.50;1.40;;;;;;;-20.05;75.06;98781.06;4953228;29;20560;-86
2024/01/06 03:06:18;;;;;;;1.73;1.63;;;;;;;-20.03;75.15;98791.28;4937914;29;20470;-85
2024/01/06 03:08:46;;;;;;;1.80;1.70;;;;;;;-19.95;75.13;98796.94;4939919;29;20047;-85
2024/01/06 03:11:13;;;;;;;1.70;1.60;;;;;;;-19.99;75.03;98785.13;4938138;29;20636;-87
2024/01/06 03:13:40;;;;;;;1.80;1.70;;;;;;;-19.93;75.32;98792.59;4948269;29;20082;-86
2024/01/06 03:16:07;;;;;;;2.05;1.95;;;;;;;-19.86;75.15;98782.94;4957146;28;20055;-86
2024/01/06 03:18:35;;;;;;;1.90;1.80;;;;;;;-19.81;75.32;98786.97;4957533;28;20055;-86
2024/01/06 03:21:02;;;;;;;1.73;1.63;;;;;;;-19.81;75.24;98791.28;4955948;28;20059;-86
2024/01/06 03:23:30;;;;;;;1.77;1.67;;;;;;;-19.78;75.26;98792.00;4955761;28;20110;-86
2024/01/06 03:25:57;;;;;;;1.80;1.70;;;;;;;-19.79;75.09;98785.19;4955551;28;20058;-86
2024/01/06 03:28:24;;;;;;;1.50;1.40;;;;;;;-19.75;75.01;98791.88;4954633;28;20640;-87
2024/01/06 03:30:51;;;;;;;1.70;1.60;;;;;;;-19.75;74.84;98791.88;4956323;28;20481;-86
2024/01/06 03:33:19;;;;;;;1.60;1.50;;;;;;;-19.74;74.88;98783.28;4955858;28;20055;-86
2024/01/06 03:35:46;;;;;;;1.63;1.52;;;;;;;-19.72;74.82;98791.78;4955554;28;20130;-86
2024/01/06 03:38:13;;;;;;;1.70;1.60;;;;;;;-19.75;75.01;98796.19;4955945;28;20047;-87
2024/01/06 03:40:41;;;;;;;1.85;1.75;;;;;;;-19.71;75.17;98788.28;4958466;28;20170;-86
2024/01/06 03:43:08;;;;;;;1.50;1.40;;;;;;;-19.66;75.25;98789.84;4955654;28;20051;-86
2024/01/06 03:45:35;;;;;;;1.50;1.40;;;;;;;-19.70;75.02;98791.69;4955781;28;20058;-86
2024/01/06 03:48:03;;;;;;;1.70;1.60;;;;;;;-19.65;75.22;98791.47;4970427;28;20110;-86
2024/01/06 03:50:30;;;;;;;1.80;1.70;;;;;;;-19.60;75.34;98784.41;4940865;28;20143;-85
2024/01/06 03:53:00;;;;;;;1.85;1.75;;;;;;;-19.66;75.18;98790.66;4936154;29;20499;-85
2024/01/06 03:55:27;;;;;;;1.60;1.50;;;;;;;-19.66;75.28;98795.00;4937266;29;20146;-86
2024/01/06 03:57:55;;;;;;;1.60;1.50;;;;;;;-19.72;75.16;98785.75;4936132;29;20142;-86
2024/01/06 04:00:27;;;;;;;1.70;1.60;;;;;;;-19.83;74.70;98788.78;4935869;29;20054;-86
2024/01/06 04:02:55;;;;;;;1.70;1.60;;;;;;;-19.87;75.06;98786.38;4935846;29;20565;-85
2024/01/06 04:05:22;;;;;;;1.60;1.50;;;;;;;-19.84;75.20;98792.25;4935778;29;20051;-85
2024/01/06 04:07:49;;;;;;;1.50;1.40;;;;;;;-19.73;75.07;98784.09;4934816;29;20529;-86
2024/01/06 04:10:17;;;;;;;1.50;1.40;;;;;;;-19.77;75.06;98788.53;4934687;29;20130;-85
2024/01/06 04:12:44;;;;;;;1.52;1.42;;;;;;;-19.73;74.99;98784.94;4946320;29;20059;-86
2024/01/06 04:15:11;;;;;;;1.50;1.40;;;;;;;-19.74;74.84;98797.88;4954821;28;20074;-85
2024/01/06 04:17:39;;;;;;;1.50;1.40;;;;;;;-19.74;75.17;98792.72;4953354;29;20051;-86
2024/01/06 04:20:06;;;;;;;1.67;1.58;;;;;;;-19.80;74.99;98790.38;4937486;29;20043;-87
2024/01/06 04:22:34;;;;;;;1.67;1.58;;;;;;;-19.91;75.09;98790.81;4955069;29;20066;-86
2024/01/06 04:25:02;;;;;;;1.65;1.55;;;;;;;-20.01;75.00;98784.34;4953800;29;20054;-87
2024/01/06 04:27:29;;;;;;;1.50;1.40;;;;;;;-20.13;75.27;98794.19;4955572;28;20047;-87
2024/01/06 04:29:59;;;;;;;1.70;1.60;;;;;;;-20.23;75.40;98804.88;4953466;29;20059;-86
2024/01/06 04:32:26;;;;;;;1.60;1.50;;;;;;;-20.30;75.64;98809.44;4953599;29;20565;-87
2024/01/06 04:34:55;;;;;;;1.70;1.60;;;;;;;-20.40;76.01;98803.78;4946517;28;20491;-87
2024/01/06 04:37:23;;;;;;;1.60;1.50;;;;;;;-20.46;76.25;98808.31;4935875;29;20518;-86
2024/01/06 04:39:53;;;;;;;1.50;1.40;;;;;;;-20.46;76.39;98818.56;4935419;29;20072;-86
2024/01/06 04:42:22;;;;;;;1.80;1.70;;;;;;;-20.48;76.43;98813.50;4932884;29;20051;-85
2024/01/06 04:44:50;;;;;;;1.73;1.63;;;;;;;-20.53;76.47;98812.81;4934312;29;20059;-86
2024/01/06 04:47:17;;;;;;;1.63;1.52;;;;;;;-20.51;76.56;98821.28;4934271;28;20510;-86
2024/01/06 04:49:45;;;;;;;1.70;1.60;;;;;;;-20.56;76.66;98821.50;4935083;29;20556;-87
2024/01/06 04:52:12;;;;;;;1.80;1.70;;;;;;;-20.50;77.00;98823.00;4934736;29;20134;-86
2024/01/06 04:54:40;;;;;;;1.50;1.40;;;;;;;-20.40;77.07;98824.31;4936145;29;20120;-86
2024/01/06 04:57:07;;;;;;;1.60;1.50;;;;;;;-20.33;77.04;98819.78;4934353;29;20860;-87
2024/01/06 04:59:34;;;;;;;1.50;1.40;;;;;;;-20.16;77.04;98826.88;4934778;29;20055;-86
2024/01/06 05:02:02;;;;;;;1.60;1.50;;;;;;;-20.06;76.79;98827.38;4935303;29;20075;-84
2024/01/06 05:04:30;;;;;;;1.77;1.67;;;;;;;-19.98;76.53;98827.91;4935491;29;20103;-83
2024/01/06 05:06:58;;;;;;;1.70;1.60;;;;;;;-20.01;76.43;98818.56;4949116;29;20135;-83
2024/01/06 05:09:26;;;;;;;1.50;1.40;;;;;;;-19.92;76.49;98832.81;4946674;29;20050;-85
2024/01/06 05:11:53;;;;;;;1.60;1.50;;;;;;;-19.85;76.40;98826.53;4952461;28;20078;-84
2024/01/06 05:14:21;;;;;;;1.80;1.70;;;;;;;-19.81;76.27;98825.53;4953438;28;20046;-85
2024/01/06 05:16:48;;;;;;;1.70;1.60;;;;;;;-19.82;76.32;98826.44;4953068;28;20061;-85
2024/01/06 05:19:19;;;;;;;1.58;1.48;;;;;;;-19.82;76.05;98821.28;4953367;28;20079;-85
2024/01/06 05:21:48;;;;;;;1.60;1.50;;;;;;;-19.91;76.20;98816.50;4953000;28;20047;-84
2024/01/06 05:24:15;;;;;;;1.65;1.55;;;;;;;-19.96;76.08;98808.13;4951511;29;20048;-83
2024/01/06 05:26:42;;;;;;;1.83;1.73;;;;;;;-19.99;76.16;98810.81;4951065;28;20054;-83
2024/01/06 05:29:10;;;;;;;1.50;1.40;;;;;;;-20.03;76.42;98811.84;4952629;28;20055;-84
2024/01/06 05:31:37;;;;;;;1.60;1.50;;;;;;;-20.02;76.44;98809.22;4952796;28;20110;-84
2024/01/06 05:34:05;;;;;;;1.60;1.50;;;;;;;-20.02;76.60;98801.50;4950593;28;20107;-86
2024/01/06 05:36:32;;;;;;;1.80;1.70;;;;;;;-19.98;76.69;98815.88;4937420;29;20748;-86
2024/01/06 05:39:00;;;;;;;1.60;1.50;;;;;;;-19.92;76.82;98809.69;4951505;29;20039;-84
2024/01/06 05:41:27;;;;;;;1.58;1.48;;;;;;;-19.92;76.86;98809.69;4951865;28;20442;-83
2024/01/06 05:43:54;;;;;;;1.67;1.58;;;;;;;-19.93;76.80;98820.84;4953298;28;20058;-85
2024/01/06 05:46:23;;;;;;;1.40;1.30;;;;;;;-19.88;76.86;98826.66;4952118;29;20044;-82
2024/01/06 05:48:50;;;;;;;1.70;1.60;;;;;;;-19.85;76.68;98830.84;4953575;28;20128;-85
2024/01/06 05:51:18;;;;;;;1.50;1.40;;;;;;;-19.89;76.61;98832.69;4953512;28;20059;-86
2024/01/06 05:53:46;;;;;;;1.77;1.67;;;;;;;-19.93;76.53;98836.28;4953683;28;20421;-85
2024/01/06 05:56:24;;;;;;;1.92;1.83;;;;;;;-20.02;76.58;98845.19;4968155;28;20051;-86
2024/01/06 05:58:52;;;;;;;1.50;1.40;;;;;;;-20.01;76.63;98844.25;4969836;28;20055;-86
2024/01/06 06:01:20;;;;;;;1.67;1.58;;;;;;;-19.96;76.61;98847.50;4955298;28;20134;-85
2024/01/06 06:03:54;;;;;;;1.60;1.50;;;;;;;-19.98;76.31;98846.72;4967822;28;20055;-86
2024/01/06 06:06:21;;;;;;;1.80;1.70;;;;;;;-19.92;76.21;98849.06;4953519;28;20059;-85
2024/01/06 06:08:49;;;;;;;1.60;1.50;;;;;;;-19.90;76.20;98856.69;4954084;28;20054;-85
2024/01/06 06:11:17;;;;;;;1.75;1.65;;;;;;;-19.87;76.25;98853.19;4949301;28;20082;-87
2024/01/06 06:13:44;;;;;;;1.65;1.55;;;;;;;-19.86;76.26;98854.88;4950706;28;20106;-84
2024/01/06 06:16:12;;;;;;;1.60;1.50;;;;;;;-19.79;76.10;98857.13;4951796;28;20502;-84
2024/01/06 06:18:40;;;;;;;1.50;1.40;;;;;;;-19.81;76.17;98853.78;4951024;29;20501;-85
2024/01/06 06:21:07;;;;;;;1.60;1.50;;;;;;;-19.79;76.26;98864.03;4947195;28;20465;-85
2024/01/06 06:23:35;;;;;;;1.75;1.65;;;;;;;-19.74;76.20;98867.25;4951413;28;20055;-85
2024/01/06 06:26:06;;;;;;;1.40;1.30;;;;;;;-19.70;76.52;98863.66;4955611;29;20094;-85
2024/01/06 06:28:35;;;;;;;1.63;1.52;;;;;;;-19.64;76.44;98867.66;4950642;29;20039;-85
2024/01/06 06:31:03;;;;;;;1.80;1.70;;;;;;;-19.63;76.12;98877.91;4969340;28;20047;-84
2024/01/06 06:33:33;;;;;;;1.50;1.40;;;;;;;-19.59;76.27;98870.91;4955887;28;20077;-83
2024/01/06 06:36:01;;;;;;;1.60;1.50;;;;;;;-19.55;76.16;98875.03;4938447;28;20063;-85
2024/01/06 06:38:29;;;;;;;1.80;1.70;;;;;;;-19.50;76.07;98876.53;4936945;29;20062;-84
2024/01/06 06:40:56;;;;;;;1.80;1.70;;;;;;;-19.41;76.00;98866.78;4935090;29;20055;-86
2024/01/06 06:43:24;;;;;;;1.60;1.50;;;;;;;-19.43;75.79;98871.16;4953130;28;20513;-87
2024/01/06 06:45:52;;;;;;;1.52;1.42;;;;;;;-19.43;75.91;98878.88;4951828;29;20130;-85
2024/01/06 06:48:19;;;;;;;1.50;1.40;;;;;;;-19.45;76.06;98876.34;4951155;29;20091;-84
2024/01/06 06:50:46;;;;;;;1.92;1.83;;;;;;;-19.43;75.88;98859.13;4949587;29;20066;-84
2024/01/06 06:53:14;;;;;;;1.63;1.52;;;;;;;-19.42;75.74;98858.22;4950787;29;20050;-86
2024/01/06 06:55:45;;;;;;;1.60;1.50;;;;;;;-19.35;75.85;98871.69;4954150;28;20134;-87
2024/01/06 06:58:13;;;;;;;1.75;1.65;;;;;;;-19.25;75.83;98872.97;4951522;28;20051;-87
2024/01/06 07:00:45;;;;;;;1.60;1.50;;;;;;;-19.19;75.55;98874.47;4953160;28;20050;-88
2024/01/06 07:03:19;;;;;;;1.60;1.50;;;;;;;-19.18;75.44;98878.72;4951825;28;20054;-86
2024/01/06 07:05:49;;;;;;;1.70;1.60;;;;;;;-19.28;75.52;98881.66;4951106;29;20051;-86
2024/01/06 07:08:16;;;;;;;1.77;1.67;;;;;;;-19.20;75.66;98876.22;4953457;28;20047;-84
2024/01/06 07:10:43;;;;;;;1.50;1.40;;;;;;;-19.12;75.63;98870.75;4954294;28;20063;-86
2024/01/06 07:13:11;;;;;;;1.88;1.77;;;;;;;-19.04;75.90;98866.13;4972210;28;20070;-88
2024/01/06 07:15:44;;;;;;;1.50;1.40;;;;;;;-18.85;75.87;98861.06;4952724;29;20087;-87
2024/01/06 07:18:12;;;;;;;1.70;1.60;;;;;;;-18.80;75.51;98861.72;4954582;28;20070;-88
2024/01/06 07:20:39;;;;;;;1.58;1.48;;;;;;;-18.78;75.72;98859.03;4953670;28;20055;-87
2024/01/06 07:23:07;;;;;;;1.60;1.50;;;;;;;-18.81;75.50;98863.44;4951786;29;20055;-86
2024/01/06 07:25:35;;;;;;;1.65;1.55;;;;;;;-18.72;75.54;98875.03;4953126;28;20055;-87
2024/01/06 07:28:08;;;;;;;1.60;1.50;;;;;;;-18.68;75.32;98875.75;4950421;28;20603;-88
2024/01/06 07:30:35;;;;;;;1.83;1.73;;;;;;;-18.64;75.20;98869.56;4966393;28;20130;-87
2024/01/06 07:33:06;;;;;;;1.70;1.60;;;;;;;-18.51;75.18;98875.84;4956078;28;20043;-88
2024/01/06 07:35:33;;;;;;;1.50;1.40;;;;;;;-18.45;75.32;98878.19;4952517;28;20792;-86
2024/01/06 07:38:01;;;;;;;1.67;1.58;;;;;;;-18.41;75.23;98882.28;4953860;29;20064;-88
2024/01/06 07:40:28;;;;;;;1.77;1.67;;;;;;;-18.33;75.43;98878.53;4946494;29;20102;-87
2024/01/06 07:42:55;;;;;;;1.60;1.50;;;;;;;-18.29;75.23;98873.19;4953653;28;20054;-87
2024/01/06 07:45:23;;;;;;;1.52;1.42;;;;;;;-18.36;75.08;98859.75;4953654;28;20065;-87
2024/01/06 07:47:56;;;;;;;1.50;1.40;;;;;;;-18.26;75.38;98857.59;4966142;28;20065;-86
2024/01/06 07:50:28;;;;;;;1.83;1.73;;;;;;;-18.14;75.37;98866.53;4969000;28;20106;-87
2024/01/06 07:52:58;;;;;;;1.65;1.55;;;;;;;-18.05;75.30;98860.97;4939409;28;20067;-88
2024/01/06 07:55:31;;;;;;;1.50;1.40;;;;;;;-18.15;75.13;98850.25;4938663;29;20098;-87
2024/01/06 07:58:12;;;;;;;1.63;1.52;;;;;;;-18.24;76.02;98842.09;4963905;28;20047;-88
2024/01/06 08:00:44;;;;;;;1.50;1.40;;;;;;;-18.10;75.74;98852.63;4959203;29;20140;-89
2024/01/06 08:03:18;;;;;;;1.50;1.40;;;;;;;-17.89;75.73;98855.13;4956628;28;20129;-88
2024/01/06 08:05:54;;;;;;;1.60;1.50;;;;;;;-17.80;75.32;98857.25;4965170;28;20079;-88
2024/01/06 08:08:23;;;;;;;1.67;1.58;;;;;;;-17.76;75.39;98857.03;4959975;29;20051;-89
2024/01/06 08:11:11;;;;;;;1.80;1.70;;;;;;;-17.74;75.74;98850.06;4958263;29;20054;-87
2024/01/06 08:13:52;;;;;;;1.90;1.80;;;;;;;-17.66;75.47;98854.84;4932317;29;20051;-86
2024/01/06 08:16:24;;;;;;;1.73;1.63;;;;;;;-17.63;75.75;98851.28;4939709;29;20654;-86
2024/01/06 08:34:59;;;;;;;2.00;1.90;;;;;;;-17.27;74.66;98848.69;5794958;23;20049;-81
2024/01/06 08:37:30;;;;;;;1.75;1.65;;;;;;;-17.33;74.85;98849.84;4882973;29;20079;-81
2024/01/06 08:42:55;;;;;;;2.25;2.05;;;;;;;-17.24;75.43;98851.13;4886125;29;20057;-80
2024/01/06 08:45:23;;;;;;;1.98;1.88;;;;;;;-17.17;75.28;98844.75;4875854;29;20642;-81
2024/01/06 08:47:52;;;;;;;1.60;1.50;;;;;;;-17.12;75.14;98850.53;4875240;29;20049;-81
2024/01/06 08:50:25;;;;;;;2.00;1.90;;;;;;;-17.03;74.89;98853.59;4891015;29;20413;-80
2024/01/06 08:52:59;;;;;;;1.90;1.80;;;;;;;-16.94;74.96;98847.97;4878438;29;20059;-81
2024/01/06 08:55:27;;;;;;;2.05;1.95;;;;;;;-16.92;74.76;98852.13;4894730;29;20568;-82
2024/01/06 08:57:55;;;;;;;1.85;1.75;;;;;;;-16.87;74.71;98844.16;4896052;29;20155;-79
2024/01/06 09:00:23;;;;;;;1.70;1.60;;;;;;;-16.99;74.70;98844.78;4895268;29;20080;-79
2024/01/06 09:02:52;;;;;;;1.55;1.45;;;;;;;-16.95;74.93;98830.81;4894002;29;20170;-80
2024/01/06 09:05:20;;;;;;;1.65;1.55;;;;;;;-16.84;74.95;98837.09;4894989;29;20048;-80
2024/01/06 09:07:50;;;;;;;1.85;1.75;;;;;;;-16.77;74.68;98834.22;4895055;29;20425;-80
2024/01/06 09:11:25;;;;;;;1.67;1.57;;;;;;;-16.80;74.63;98835.22;4878623;29;20083;-80
2024/01/06 09:14:45;;;;;;;1.75;1.65;;;;;;;-16.78;74.29;98835.97;4894313;29;20044;-80
2024/01/06 09:17:24;;;;;;;2.00;1.90;;;;;;;-16.77;74.14;98837.59;4879486;29;20115;-81
2024/01/06 09:19:59;;;;;;;1.90;1.80;;;;;;;-16.91;74.14;98825.44;4909843;29;20498;-80
2024/01/06 09:22:30;;;;;;;2.15;2.03;;;;;;;-16.97;74.39;98820.56;4894473;29;20067;-80
2024/01/06 09:25:04;;;;;;;1.60;1.50;;;;;;;-16.86;74.54;98814.84;4893480;29;20532;-80
2024/01/06 09:27:36;;;;;;;1.60;1.50;;;;;;;-16.62;74.62;98805.81;4892542;29;20079;-82
2024/01/06 09:30:27;;;;;;;;;;;;;;;;;;;;;
2024/01/06 09:33:17;;;;;;;1.60;1.50;;;;;;;-16.49;74.41;98811.19;4882959;29;20055;-80
2024/01/06 09:35:48;;;;;;;1.83;1.73;;;;;;;-16.39;74.46;98816.72;4885929;29;20055;-83
2024/01/06 09:38:19;;;;;;;1.60;1.50;;;;;;;-16.44;74.45;98808.38;4884642;29;20076;-82
2024/01/06 09:41:07;;;;;;;1.55;1.45;;;;;;;-16.43;74.69;98805.72;4887019;29;20101;-81
2024/01/06 09:44:03;;;;;;;1.42;1.33;;;;;;;-16.32;74.47;98799.97;4888956;29;20056;-84
2024/01/06 09:47:22;;;;;;;1.73;1.63;;;;;;;-16.35;73.96;98815.66;4883296;29;20466;-82
2024/01/06 09:49:53;;;;;;;1.90;1.80;;;;;;;-16.19;73.71;98805.31;4894016;29;20049;-83
2024/01/06 09:52:25;;;;;;;1.70;1.60;;;;;;;-16.26;73.45;98798.81;4893945;29;20048;-81
2024/01/06 09:55:00;;;;;;;1.95;1.85;;;;;;;-16.27;73.81;98794.56;4887867;29;20528;-81
2024/01/06 09:57:44;;;;;;;2.00;1.90;;;;;;;-16.21;73.86;98805.38;4882468;29;20052;-82
2024/01/06 10:00:18;;;;;;;1.92;1.83;;;;;;;-16.19;73.98;98806.16;4884501;29;20053;-82
2024/01/06 10:02:52;;;;;;;1.70;1.60;;;;;;;-16.13;73.84;98786.88;4891208;29;20060;-82
2024/01/06 10:05:20;;;;;;;1.85;1.75;;;;;;;-16.00;73.88;98794.81;4892838;29;20056;-83
2024/01/06 10:07:48;;;;;;;1.70;1.60;;;;;;;-16.00;73.76;98795.69;4901632;29;20470;-83
2024/01/06 10:10:19;;;;;;;1.73;1.63;;;;;;;-15.95;73.69;98792.81;4899304;29;20126;-83
2024/01/06 10:12:48;;;;;;;1.90;1.80;;;;;;;-15.82;74.01;98792.97;4890485;29;20059;-82
2024/01/06 10:15:21;;;;;;;1.88;1.77;;;;;;;-15.72;73.82;98789.00;4860772;29;20048;-83
2024/01/06 10:17:49;;;;;;;1.75;1.65;;;;;;;-15.85;73.40;98780.22;4878678;29;20056;-82
2024/01/06 10:20:19;;;;;;;1.60;1.50;;;;;;;-15.90;73.38;98784.81;4895738;29;20453;-82
2024/01/06 10:22:48;;;;;;;2.00;1.90;;;;;;;-15.84;73.42;98780.16;4881289;29;20045;-81
2024/01/06 10:25:16;;;;;;;1.63;1.52;;;;;;;-15.78;73.37;98781.56;4892440;29;20075;-81
2024/01/06 10:27:44;;;;;;;1.92;1.83;;;;;;;-15.84;73.28;98777.56;4879626;29;20044;-82
2024/01/06 10:30:14;;;;;;;1.65;1.55;;;;;;;-15.89;73.49;98768.41;4875535;29;20581;-80
2024/01/06 10:32:42;;;;;;;2.05;1.95;;;;;;;-15.90;73.63;98772.72;4876182;29;20402;-79
2024/01/06 10:35:12;;;;;;;1.88;1.77;;;;;;;-15.87;73.78;98759.63;4891903;29;20069;-79
2024/01/06 10:37:42;;;;;;;1.45;1.35;;;;;;;-15.53;73.85;98762.88;4894357;29;20056;-81
2024/01/06 10:40:11;;;;;;;2.35;2.15;;;;;;;-15.32;73.61;98755.63;4897577;29;20056;-79
2024/01/06 10:42:44;;;;;;;1.88;1.77;;;;;;;-15.02;73.18;98760.78;4896181;29;20071;-79
2024/01/06 10:45:13;;;;;;;2.00;1.90;;;;;;;-14.94;72.55;98757.75;4881725;29;20056;-79
2024/01/06 10:47:45;;;;;;;1.67;1.58;;;;;;;-15.06;72.18;98751.56;4895774;29;20075;-80
2024/01/06 10:50:23;;;;;;;1.65;1.55;;;;;;;-15.00;72.39;98743.41;4867396;29;20048;-80
2024/01/06 10:53:04;;;;;;;1.63;1.52;;;;;;;-14.93;72.48;98755.09;4894526;29;20045;-81
2024/01/06 10:55:42;;;;;;;2.10;2.00;;;;;;;-15.03;72.47;98743.59;4898347;29;20049;-81
2024/01/06 10:58:50;;;;;;;1.70;1.60;;;;;;;-14.90;72.50;98744.53;4878535;29;20317;-80
2024/01/06 11:01:29;;;;;;;1.77;1.67;;;;;;;-14.90;72.50;98738.53;4896869;29;20048;-79
2024/01/06 11:04:06;;;;;;;1.92;1.83;;;;;;;-15.04;72.32;98734.16;4864559;29;20494;-80
2024/01/06 11:06:38;;;;;;;2.25;2.05;;;;;;;-15.11;72.45;98732.88;4862661;29;20053;-79
2024/01/06 11:09:26;;;;;;;1.70;1.60;;;;;;;-15.20;72.72;98742.00;4895347;29;20135;-82
2024/01/06 11:12:20;;;;;;;2.00;1.90;;;;;;;-15.23;73.05;98742.19;4895612;29;20064;-79
2024/01/06 11:14:58;;;;;;;1.75;1.65;;;;;;;-15.18;72.90;98747.09;4896041;29;20466;-79
2024/01/06 11:17:53;;;;;;;2.17;1.98;;;;;;;-15.20;72.98;98752.34;4868326;29;20036;-79
2024/01/06 11:20:30;;;;;;;1.80;1.70;;;;;;;-15.30;73.09;98744.28;4894286;29;20533;-81
2024/01/06 11:23:23;;;;;;;1.98;1.88;;;;;;;-15.33;73.32;98746.22;4916396;29;20063;-79
2024/01/06 11:26:19;;;;;;;2.05;1.92;;;;;;;-15.39;73.20;98749.13;4869453;29;20065;-79
2024/01/06 11:28:58;;;;;;;1.65;1.55;;;;;;;-15.39;73.23;98757.75;4893557;29;20071;-79
2024/01/06 11:31:32;;;;;;;1.67;1.58;;;;;;;-15.43;73.40;98752.84;4887914;29;20100;-78
2024/01/06 11:34:18;;;;;;;1.75;1.65;;;;;;;-15.45;73.47;98763.28;4887830;29;20279;-79
2024/01/06 11:36:48;;;;;;;1.83;1.73;;;;;;;-15.56;73.50;98766.47;4887425;29;20048;-79
2024/01/06 11:39:45;;;;;;;2.00;1.90;;;;;;;-15.63;73.66;98765.16;4891104;29;20430;-77
2024/01/06 11:42:25;;;;;;;1.90;1.80;;;;;;;-15.87;73.97;98764.81;4864737;29;20071;-78
2024/01/06 11:45:20;;;;;;;1.45;1.35;;;;;;;-16.00;74.21;98761.19;4887008;29;20395;-79
2024/01/06 11:48:05;;;;;;;1.90;1.80;;;;;;;-15.91;74.43;98767.63;4888420;29;20068;-78
2024/01/06 11:50:40;;;;;;;1.70;1.60;;;;;;;-16.03;74.43;98763.97;4874196;29;20593;-79
2024/01/06 11:53:11;;;;;;;2.03;1.92;;;;;;;-16.11;74.55;98771.31;4871943;29;20112;-78
2024/01/06 11:55:43;;;;;;;1.80;1.70;;;;;;;-16.22;74.72;98759.81;4870900;29;20068;-79
2024/01/06 11:58:11;;;;;;;1.92;1.83;;;;;;;-16.16;74.83;98769.78;4887936;29;20063;-79
2024/01/06 12:00:40;;;;;;;2.00;1.90;;;;;;;-16.19;75.12;98764.78;4892075;29;20057;-79
2024/01/06 12:03:10;;;;;;;1.75;1.65;;;;;;;-16.16;75.28;98769.78;4889805;29;20100;-79